Aérodrome :
LOGIN :

S'inscrire | Disclaimer

   EN    FR    IT 

 










Légende :    VFR   VFR Marginal   IFR   IFR Intensif   IFR Très Intensif
Visi : 
Plafond : 
>= 8 km
>= 3000ft
5 à 8 km
1000 à 3000 ft
1500m à 5 km
500 à 1000 ft
800 à 1500m
200 à 500 ft
< 800m
< 200 ft
Symboles :   Orages  Brouillard  Fortes neiges  Fortes précipitations  Vent > 20 kt
SIGMETs :   Divers  Orages  Givrage  Turbulence  Onde Orograph.  Cendres Volcan.







- Altitude de l'aérodrome : 219 ft
- Code IATA : DNR
- Voir les cartes d'approche


LFRD - Dinard

DERNIER METAR :
  • 230130Z AUTO 32010KT 9999 OVC014 10/09 Q1018 TEMPO BKN003

METARs EXPIRÉS :
  • 230100Z AUTO 32010KT 9999 BKN003 OVC014 10/10 Q1018 NOSIG
  • 230030Z AUTO 31009KT 280V340 2800 R35L/1300U BR VV/// 10/10 Q1017 TEMPO BKN003 BECMG 9999 NSW
  • 230000Z AUTO 33009KT 290V360 1300 0750 R35L/1200D BCFG OVC002 11/10 Q1017 BECMG 9999 NSW
  • 222330Z AUTO 30005KT 9999 BKN004 OVC010 11/11 Q1017 NOSIG
  • 222300Z AUTO 32006KT 9999 FEW007 BKN014 BKN035 11/10 Q1017 TEMPO BKN004

TAF TAF LFRD
Valide du 23 à 00h jusqu'au 24 à 00h UTC


222300Z 2300/2324 31010KT 9999 SCT020
TEMPO 2300/2308 BKN008
PROB30
TEMPO 2300/2306 BKN003
BECMG 2304/2306 VRB05KT
BECMG 2314/2316 36010KT
BECMG 2318/2320 VRB03KT
ATIS : +33 2 99 16 81 50
Pas de NOTAMs connus pour ce terrain.



MET'MAP, la Météo Aéronautique d'un coup d'oeil ! - Copyright ORBIFLY Décembre 2007 - Disclaimer

ORBIFLY MET'MAP TEAM :

Programmation & Développement : Alexandra Zaïnal
Conception & Développement : Baudouin d'Aumeries
Co-Programmation & Développement : Marc-Olivier Méhu
Soutien technique & logistique : Manuel Goepfert

Contact : metmap@orbifly.com




SOURCES & CREDITS :

   NOAA